sensor_id;sensor_type;location;lat;lon;timestamp;temperature;humidity
29237;DHT22;16266;50.866;4.398;2023-03-23T00:02:29;13.50;99.90
29237;DHT22;16266;50.866;4.398;2023-03-23T00:04:55;13.50;99.90
29237;DHT22;16266;50.866;4.398;2023-03-23T00:07:22;13.50;99.90
29237;DHT22;16266;50.866;4.398;2023-03-23T00:09:53;13.50;99.90
29237;DHT22;16266;50.866;4.398;2023-03-23T00:12:21;13.50;99.90
29237;DHT22;16266;50.866;4.398;2023-03-23T00:14:55;13.50;99.90
29237;DHT22;16266;50.866;4.398;2023-03-23T00:17:20;13.50;99.90
29237;DHT22;16266;50.866;4.398;2023-03-23T00:19:46;13.50;99.90
29237;DHT22;16266;50.866;4.398;2023-03-23T00:22:17;13.50;99.90
29237;DHT22;16266;50.866;4.398;2023-03-23T00:24:45;13.50;99.90
29237;DHT22;16266;50.866;4.398;2023-03-23T00:27:11;13.50;99.90
29237;DHT22;16266;50.866;4.398;2023-03-23T00:29:40;13.40;99.90
29237;DHT22;16266;50.866;4.398;2023-03-23T00:32:07;13.40;99.90
29237;DHT22;16266;50.866;4.398;2023-03-23T00:34:38;13.40;99.90
29237;DHT22;16266;50.866;4.398;2023-03-23T00:37:06;13.40;99.90
29237;DHT22;16266;50.866;4.398;2023-03-23T00:39:33;13.50;99.90
29237;DHT22;16266;50.866;4.398;2023-03-23T00:41:59;13.50;99.90
29237;DHT22;16266;50.866;4.398;2023-03-23T00:44:29;13.40;99.90
29237;DHT22;16266;50.866;4.398;2023-03-23T00:46:55;13.40;99.90
29237;DHT22;16266;50.866;4.398;2023-03-23T00:49:22;13.40;99.90
29237;DHT22;16266;50.866;4.398;2023-03-23T00:51:53;13.40;99.90
29237;DHT22;16266;50.866;4.398;2023-03-23T00:54:20;13.40;99.90
29237;DHT22;16266;50.866;4.398;2023-03-23T00:56:46;13.40;99.90
29237;DHT22;16266;50.866;4.398;2023-03-23T00:59:12;13.40;99.90
29237;DHT22;16266;50.866;4.398;2023-03-23T01:01:38;13.40;99.90
29237;DHT22;16266;50.866;4.398;2023-03-23T01:04:05;13.40;99.90
29237;DHT22;16266;50.866;4.398;2023-03-23T01:06:36;13.40;99.90
29237;DHT22;16266;50.866;4.398;2023-03-23T01:09:07;13.50;99.90
29237;DHT22;16266;50.866;4.398;2023-03-23T01:11:33;13.50;99.90
29237;DHT22;16266;50.866;4.398;2023-03-23T01:14:00;13.60;99.90
29237;DHT22;16266;50.866;4.398;2023-03-23T01:16:27;13.60;99.90
29237;DHT22;16266;50.866;4.398;2023-03-23T01:18:52;13.60;99.90
29237;DHT22;16266;50.866;4.398;2023-03-23T01:21:19;13.50;99.90
29237;DHT22;16266;50.866;4.398;2023-03-23T01:23:46;13.50;99.90
29237;DHT22;16266;50.866;4.398;2023-03-23T01:26:15;13.50;99.90
29237;DHT22;16266;50.866;4.398;2023-03-23T01:28:41;13.50;99.90
29237;DHT22;16266;50.866;4.398;2023-03-23T01:31:11;13.50;99.90
29237;DHT22;16266;50.866;4.398;2023-03-23T01:33:38;13.50;99.90
29237;DHT22;16266;50.866;4.398;2023-03-23T01:36:06;13.50;99.90
29237;DHT22;16266;50.866;4.398;2023-03-23T01:38:33;13.50;99.90
29237;DHT22;16266;50.866;4.398;2023-03-23T01:40:59;13.50;99.90
29237;DHT22;16266;50.866;4.398;2023-03-23T01:43:25;13.50;99.90
29237;DHT22;16266;50.866;4.398;2023-03-23T01:45:51;13.40;99.90
29237;DHT22;16266;50.866;4.398;2023-03-23T01:48:35;13.40;99.90
29237;DHT22;16266;50.866;4.398;2023-03-23T01:51:06;13.40;99.90
29237;DHT22;16266;50.866;4.398;2023-03-23T01:53:38;13.40;99.90
29237;DHT22;16266;50.866;4.398;2023-03-23T01:56:07;13.40;99.90
29237;DHT22;16266;50.866;4.398;2023-03-23T01:58:35;13.40;99.90
29237;DHT22;16266;50.866;4.398;2023-03-23T02:01:05;13.50;99.90
29237;DHT22;16266;50.866;4.398;2023-03-23T02:03:32;13.40;99.90
29237;DHT22;16266;50.866;4.398;2023-03-23T02:05:59;13.40;99.90
29237;DHT22;16266;50.866;4.398;2023-03-23T02:08:27;13.50;99.90
29237;DHT22;16266;50.866;4.398;2023-03-23T02:10:54;13.50;99.90
29237;DHT22;16266;50.866;4.398;2023-03-23T02:13:20;13.40;99.90
29237;DHT22;16266;50.866;4.398;2023-03-23T02:15:58;13.40;99.90
29237;DHT22;16266;50.866;4.398;2023-03-23T02:27:11;13.40;99.90
29237;DHT22;16266;50.866;4.398;2023-03-23T02:35:00;13.30;99.90
29237;DHT22;16266;50.866;4.398;2023-03-23T02:37:32;13.30;99.90
29237;DHT22;16266;50.866;4.398;2023-03-23T02:40:23;13.30;99.90
29237;DHT22;16266;50.866;4.398;2023-03-23T02:42:52;13.30;99.90
29237;DHT22;16266;50.866;4.398;2023-03-23T02:45:20;13.30;99.90
29237;DHT22;16266;50.866;4.398;2023-03-23T02:47:48;13.30;99.90
29237;DHT22;16266;50.866;4.398;2023-03-23T02:50:15;13.30;99.90
29237;DHT22;16266;50.866;4.398;2023-03-23T02:52:43;13.30;99.90
29237;DHT22;16266;50.866;4.398;2023-03-23T02:55:10;13.30;99.90
29237;DHT22;16266;50.866;4.398;2023-03-23T02:57:37;13.20;99.90
29237;DHT22;16266;50.866;4.398;2023-03-23T03:00:05;13.20;99.90
29237;DHT22;16266;50.866;4.398;2023-03-23T03:02:36;13.20;99.90
29237;DHT22;16266;50.866;4.398;2023-03-23T03:11:08;13.20;99.90
29237;DHT22;16266;50.866;4.398;2023-03-23T03:13:44;13.20;99.90
29237;DHT22;16266;50.866;4.398;2023-03-23T03:16:17;13.20;99.90
29237;DHT22;16266;50.866;4.398;2023-03-23T03:19:25;13.20;99.90
29237;DHT22;16266;50.866;4.398;2023-03-23T03:21:52;13.30;99.90
29237;DHT22;16266;50.866;4.398;2023-03-23T03:24:21;13.20;99.90
29237;DHT22;16266;50.866;4.398;2023-03-23T03:26:50;13.20;99.90
29237;DHT22;16266;50.866;4.398;2023-03-23T03:29:18;13.20;99.90
29237;DHT22;16266;50.866;4.398;2023-03-23T03:31:46;13.20;99.90
29237;DHT22;16266;50.866;4.398;2023-03-23T03:34:14;13.30;99.90
29237;DHT22;16266;50.866;4.398;2023-03-23T03:36:44;13.30;99.90
29237;DHT22;16266;50.866;4.398;2023-03-23T03:39:12;13.30;99.90
29237;DHT22;16266;50.866;4.398;2023-03-23T03:41:40;13.30;99.90
29237;DHT22;16266;50.866;4.398;2023-03-23T03:44:07;13.30;99.90
29237;DHT22;16266;50.866;4.398;2023-03-23T03:46:34;13.40;99.90
29237;DHT22;16266;50.866;4.398;2023-03-23T03:49:00;13.40;99.90
29237;DHT22;16266;50.866;4.398;2023-03-23T03:51:27;13.40;99.90
29237;DHT22;16266;50.866;4.398;2023-03-23T03:53:53;13.40;99.90
29237;DHT22;16266;50.866;4.398;2023-03-23T03:56:19;13.30;99.90
29237;DHT22;16266;50.866;4.398;2023-03-23T03:58:48;13.30;99.90
29237;DHT22;16266;50.866;4.398;2023-03-23T04:01:14;13.30;99.90
29237;DHT22;16266;50.866;4.398;2023-03-23T04:03:40;13.30;99.90
29237;DHT22;16266;50.866;4.398;2023-03-23T04:06:06;13.30;99.90
29237;DHT22;16266;50.866;4.398;2023-03-23T04:08:34;13.40;99.90
29237;DHT22;16266;50.866;4.398;2023-03-23T04:11:00;13.30;99.90
29237;DHT22;16266;50.866;4.398;2023-03-23T04:13:26;13.30;99.90
29237;DHT22;16266;50.866;4.398;2023-03-23T04:15:51;13.20;99.90
29237;DHT22;16266;50.866;4.398;2023-03-23T04:18:18;13.20;99.90
29237;DHT22;16266;50.866;4.398;2023-03-23T04:20:46;13.20;99.90
29237;DHT22;16266;50.866;4.398;2023-03-23T04:23:15;13.20;99.90
29237;DHT22;16266;50.866;4.398;2023-03-23T04:25:49;13.20;99.90
29237;DHT22;16266;50.866;4.398;2023-03-23T04:28:17;13.10;99.90
29237;DHT22;16266;50.866;4.398;2023-03-23T04:30:44;13.10;99.90
29237;DHT22;16266;50.866;4.398;2023-03-23T04:33:11;13.10;99.90
29237;DHT22;16266;50.866;4.398;2023-03-23T04:35:42;13.10;99.90
29237;DHT22;16266;50.866;4.398;2023-03-23T04:38:14;13.10;99.90
29237;DHT22;16266;50.866;4.398;2023-03-23T04:40:42;13.10;99.90
29237;DHT22;16266;50.866;4.398;2023-03-23T04:43:08;13.20;99.90
29237;DHT22;16266;50.866;4.398;2023-03-23T04:45:35;13.10;99.90
29237;DHT22;16266;50.866;4.398;2023-03-23T04:48:03;13.10;99.90
29237;DHT22;16266;50.866;4.398;2023-03-23T04:50:31;13.20;99.90
29237;DHT22;16266;50.866;4.398;2023-03-23T04:52:59;13.20;99.90
29237;DHT22;16266;50.866;4.398;2023-03-23T04:55:30;13.20;99.90
29237;DHT22;16266;50.866;4.398;2023-03-23T04:57:57;13.10;99.90
29237;DHT22;16266;50.866;4.398;2023-03-23T05:00:26;13.10;99.90
29237;DHT22;16266;50.866;4.398;2023-03-23T05:02:52;13.10;99.90
29237;DHT22;16266;50.866;4.398;2023-03-23T05:05:19;12.90;99.90
29237;DHT22;16266;50.866;4.398;2023-03-23T05:07:46;12.80;99.90
29237;DHT22;16266;50.866;4.398;2023-03-23T05:10:13;12.80;99.90
29237;DHT22;16266;50.866;4.398;2023-03-23T05:12:39;12.70;99.90
29237;DHT22;16266;50.866;4.398;2023-03-23T05:15:06;12.70;99.90
29237;DHT22;16266;50.866;4.398;2023-03-23T05:17:33;12.70;99.90
29237;DHT22;16266;50.866;4.398;2023-03-23T05:19:59;12.70;99.90
29237;DHT22;16266;50.866;4.398;2023-03-23T05:22:28;12.80;99.90
29237;DHT22;16266;50.866;4.398;2023-03-23T05:24:53;12.80;99.90
29237;DHT22;16266;50.866;4.398;2023-03-23T05:27:19;12.90;99.90
29237;DHT22;16266;50.866;4.398;2023-03-23T05:29:46;12.90;99.90
29237;DHT22;16266;50.866;4.398;2023-03-23T05:32:17;12.80;99.90
29237;DHT22;16266;50.866;4.398;2023-03-23T05:34:44;12.90;99.90
29237;DHT22;16266;50.866;4.398;2023-03-23T05:37:10;12.90;99.90
29237;DHT22;16266;50.866;4.398;2023-03-23T05:39:37;12.90;99.90
29237;DHT22;16266;50.866;4.398;2023-03-23T05:42:03;13.00;99.90
29237;DHT22;16266;50.866;4.398;2023-03-23T05:44:29;13.00;99.90
29237;DHT22;16266;50.866;4.398;2023-03-23T05:46:55;13.00;99.90
29237;DHT22;16266;50.866;4.398;2023-03-23T05:49:21;13.10;99.90
29237;DHT22;16266;50.866;4.398;2023-03-23T05:51:47;13.00;99.90
29237;DHT22;16266;50.866;4.398;2023-03-23T05:54:13;13.00;99.90
29237;DHT22;16266;50.866;4.398;2023-03-23T05:56:39;13.00;99.90
29237;DHT22;16266;50.866;4.398;2023-03-23T05:59:05;13.10;99.90
29237;DHT22;16266;50.866;4.398;2023-03-23T06:01:31;13.10;99.90
29237;DHT22;16266;50.866;4.398;2023-03-23T06:03:57;13.20;99.90
29237;DHT22;16266;50.866;4.398;2023-03-23T06:06:25;13.10;99.90
29237;DHT22;16266;50.866;4.398;2023-03-23T06:08:51;13.10;99.90
29237;DHT22;16266;50.866;4.398;2023-03-23T06:11:17;13.20;99.90
29237;DHT22;16266;50.866;4.398;2023-03-23T06:13:42;13.10;99.90
29237;DHT22;16266;50.866;4.398;2023-03-23T06:16:08;13.10;99.90
29237;DHT22;16266;50.866;4.398;2023-03-23T06:18:34;13.10;99.90
29237;DHT22;16266;50.866;4.398;2023-03-23T06:21:03;13.20;99.90
29237;DHT22;16266;50.866;4.398;2023-03-23T06:23:29;13.20;99.90
29237;DHT22;16266;50.866;4.398;2023-03-23T06:26:02;13.20;99.90
29237;DHT22;16266;50.866;4.398;2023-03-23T06:28:29;13.20;99.90
29237;DHT22;16266;50.866;4.398;2023-03-23T06:30:54;13.20;99.90
29237;DHT22;16266;50.866;4.398;2023-03-23T06:33:20;13.30;99.90
29237;DHT22;16266;50.866;4.398;2023-03-23T06:35:46;13.30;99.90
29237;DHT22;16266;50.866;4.398;2023-03-23T06:38:12;13.30;99.90
29237;DHT22;16266;50.866;4.398;2023-03-23T06:40:38;13.30;99.90
29237;DHT22;16266;50.866;4.398;2023-03-23T06:43:04;13.40;99.90
29237;DHT22;16266;50.866;4.398;2023-03-23T06:45:31;13.40;99.90
29237;DHT22;16266;50.866;4.398;2023-03-23T06:47:57;13.30;99.90
29237;DHT22;16266;50.866;4.398;2023-03-23T06:50:22;13.10;99.90
29237;DHT22;16266;50.866;4.398;2023-03-23T06:52:50;12.90;99.90
29237;DHT22;16266;50.866;4.398;2023-03-23T06:55:17;12.70;99.90
29237;DHT22;16266;50.866;4.398;2023-03-23T06:57:44;12.60;99.90
29237;DHT22;16266;50.866;4.398;2023-03-23T07:00:11;12.50;99.90
29237;DHT22;16266;50.866;4.398;2023-03-23T07:02:42;12.50;99.90
29237;DHT22;16266;50.866;4.398;2023-03-23T07:05:09;12.40;99.90
29237;DHT22;16266;50.866;4.398;2023-03-23T07:07:39;12.40;99.90
29237;DHT22;16266;50.866;4.398;2023-03-23T07:10:07;12.00;99.90
29237;DHT22;16266;50.866;4.398;2023-03-23T07:12:34;11.70;99.90
29237;DHT22;16266;50.866;4.398;2023-03-23T07:15:02;11.50;99.90
29237;DHT22;16266;50.866;4.398;2023-03-23T07:17:28;11.20;99.90
29237;DHT22;16266;50.866;4.398;2023-03-23T07:19:54;11.10;99.90
29237;DHT22;16266;50.866;4.398;2023-03-23T07:22:20;10.90;99.90
29237;DHT22;16266;50.866;4.398;2023-03-23T07:24:45;10.90;99.90
29237;DHT22;16266;50.866;4.398;2023-03-23T07:27:11;10.80;99.90
29237;DHT22;16266;50.866;4.398;2023-03-23T07:29:37;10.70;99.90
29237;DHT22;16266;50.866;4.398;2023-03-23T07:32:04;10.70;99.90
29237;DHT22;16266;50.866;4.398;2023-03-23T07:36:57;10.80;99.90
29237;DHT22;16266;50.866;4.398;2023-03-23T07:39:23;10.80;99.90
29237;DHT22;16266;50.866;4.398;2023-03-23T07:41:50;10.90;99.90
29237;DHT22;16266;50.866;4.398;2023-03-23T07:44:16;11.00;99.90
29237;DHT22;16266;50.866;4.398;2023-03-23T07:46:41;11.10;99.90
29237;DHT22;16266;50.866;4.398;2023-03-23T07:49:08;11.30;99.90
29237;DHT22;16266;50.866;4.398;2023-03-23T07:51:34;11.30;99.90
29237;DHT22;16266;50.866;4.398;2023-03-23T07:54:01;11.50;99.90
29237;DHT22;16266;50.866;4.398;2023-03-23T07:56:28;11.60;99.90
29237;DHT22;16266;50.866;4.398;2023-03-23T07:58:54;11.70;99.90
29237;DHT22;16266;50.866;4.398;2023-03-23T08:01:20;11.80;99.90
29237;DHT22;16266;50.866;4.398;2023-03-23T08:03:46;11.80;99.90
29237;DHT22;16266;50.866;4.398;2023-03-23T08:06:13;12.00;99.90
29237;DHT22;16266;50.866;4.398;2023-03-23T08:08:39;12.00;99.90
29237;DHT22;16266;50.866;4.398;2023-03-23T08:11:06;12.00;99.90
29237;DHT22;16266;50.866;4.398;2023-03-23T08:13:32;12.10;99.90
29237;DHT22;16266;50.866;4.398;2023-03-23T08:15:59;12.00;99.90
29237;DHT22;16266;50.866;4.398;2023-03-23T08:18:29;12.10;99.90
29237;DHT22;16266;50.866;4.398;2023-03-23T08:20:55;12.10;99.90
29237;DHT22;16266;50.866;4.398;2023-03-23T08:23:20;12.00;99.90
29237;DHT22;16266;50.866;4.398;2023-03-23T08:25:47;11.90;99.90
29237;DHT22;16266;50.866;4.398;2023-03-23T08:28:13;11.70;99.90
29237;DHT22;16266;50.866;4.398;2023-03-23T08:30:41;11.60;99.90
29237;DHT22;16266;50.866;4.398;2023-03-23T08:33:08;11.50;99.90
29237;DHT22;16266;50.866;4.398;2023-03-23T08:35:36;11.40;99.90
29237;DHT22;16266;50.866;4.398;2023-03-23T08:38:02;11.30;99.90
29237;DHT22;16266;50.866;4.398;2023-03-23T08:40:28;11.30;99.90
29237;DHT22;16266;50.866;4.398;2023-03-23T08:42:55;11.40;99.90
29237;DHT22;16266;50.866;4.398;2023-03-23T08:45:22;11.40;99.90
29237;DHT22;16266;50.866;4.398;2023-03-23T08:47:49;11.30;99.90
29237;DHT22;16266;50.866;4.398;2023-03-23T08:50:20;11.30;99.90
29237;DHT22;16266;50.866;4.398;2023-03-23T08:52:46;11.30;99.90
29237;DHT22;16266;50.866;4.398;2023-03-23T08:55:12;11.40;99.90
29237;DHT22;16266;50.866;4.398;2023-03-23T08:57:38;11.60;99.90
29237;DHT22;16266;50.866;4.398;2023-03-23T09:00:07;11.80;99.90
29237;DHT22;16266;50.866;4.398;2023-03-23T09:02:45;12.10;99.90
29237;DHT22;16266;50.866;4.398;2023-03-23T09:05:11;12.30;99.90
29237;DHT22;16266;50.866;4.398;2023-03-23T09:07:41;12.40;99.90
29237;DHT22;16266;50.866;4.398;2023-03-23T09:10:08;12.30;99.90
29237;DHT22;16266;50.866;4.398;2023-03-23T09:12:35;12.30;99.90
29237;DHT22;16266;50.866;4.398;2023-03-23T09:15:03;12.10;99.90
29237;DHT22;16266;50.866;4.398;2023-03-23T09:17:40;12.10;99.90
29237;DHT22;16266;50.866;4.398;2023-03-23T09:20:14;12.00;99.90
29237;DHT22;16266;50.866;4.398;2023-03-23T09:22:45;12.20;99.90
29237;DHT22;16266;50.866;4.398;2023-03-23T09:25:13;12.40;99.90
29237;DHT22;16266;50.866;4.398;2023-03-23T09:27:41;12.70;99.90
29237;DHT22;16266;50.866;4.398;2023-03-23T09:30:09;12.90;99.90
29237;DHT22;16266;50.866;4.398;2023-03-23T09:32:37;12.80;99.90
29237;DHT22;16266;50.866;4.398;2023-03-23T09:35:05;12.70;99.90
29237;DHT22;16266;50.866;4.398;2023-03-23T09:37:40;12.50;99.90
29237;DHT22;16266;50.866;4.398;2023-03-23T09:40:10;12.50;99.90
29237;DHT22;16266;50.866;4.398;2023-03-23T09:43:34;12.90;99.90
29237;DHT22;16266;50.866;4.398;2023-03-23T09:45:54;13.20;99.90
29237;DHT22;16266;50.866;4.398;2023-03-23T09:53:58;15.60;99.90
29237;DHT22;16266;50.866;4.398;2023-03-23T09:56:27;16.10;99.90
29237;DHT22;16266;50.866;4.398;2023-03-23T09:58:57;16.40;99.90
29237;DHT22;16266;50.866;4.398;2023-03-23T10:01:38;16.60;99.90
29237;DHT22;16266;50.866;4.398;2023-03-23T10:04:43;16.60;99.90
29237;DHT22;16266;50.866;4.398;2023-03-23T10:07:13;16.40;99.90
29237;DHT22;16266;50.866;4.398;2023-03-23T10:09:40;16.50;99.90
29237;DHT22;16266;50.866;4.398;2023-03-23T10:15:21;16.60;99.90
29237;DHT22;16266;50.866;4.398;2023-03-23T10:18:12;16.60;99.90
29237;DHT22;16266;50.866;4.398;2023-03-23T10:20:43;16.70;99.90
29237;DHT22;16266;50.866;4.398;2023-03-23T10:29:18;17.30;99.90
29237;DHT22;16266;50.866;4.398;2023-03-23T10:32:12;17.20;99.90
29237;DHT22;16266;50.866;4.398;2023-03-23T10:34:55;17.00;99.90
29237;DHT22;16266;50.866;4.398;2023-03-23T10:37:39;16.50;99.90
29237;DHT22;16266;50.866;4.398;2023-03-23T10:40:15;16.20;99.90
29237;DHT22;16266;50.866;4.398;2023-03-23T10:42:42;16.30;99.90
29237;DHT22;16266;50.866;4.398;2023-03-23T10:45:17;16.50;99.90
29237;DHT22;16266;50.866;4.398;2023-03-23T10:48:11;16.40;99.90
29237;DHT22;16266;50.866;4.398;2023-03-23T10:50:38;15.90;99.90
29237;DHT22;16266;50.866;4.398;2023-03-23T10:53:56;16.30;99.90
29237;DHT22;16266;50.866;4.398;2023-03-23T10:56:25;16.50;99.90
29237;DHT22;16266;50.866;4.398;2023-03-23T10:58:51;16.80;99.90
29237;DHT22;16266;50.866;4.398;2023-03-23T11:01:20;16.80;99.90
29237;DHT22;16266;50.866;4.398;2023-03-23T11:03:48;16.60;99.90
29237;DHT22;16266;50.866;4.398;2023-03-23T11:06:24;17.10;99.90
29237;DHT22;16266;50.866;4.398;2023-03-23T11:08:58;17.50;99.90
29237;DHT22;16266;50.866;4.398;2023-03-23T11:11:36;17.80;99.90
29237;DHT22;16266;50.866;4.398;2023-03-23T11:14:27;19.00;99.90
29237;DHT22;16266;50.866;4.398;2023-03-23T11:16:58;19.90;99.90
29237;DHT22;16266;50.866;4.398;2023-03-23T11:19:30;20.30;99.90
29237;DHT22;16266;50.866;4.398;2023-03-23T11:22:07;19.20;99.90
29237;DHT22;16266;50.866;4.398;2023-03-23T11:24:41;18.20;99.90
29237;DHT22;16266;50.866;4.398;2023-03-23T11:27:09;17.60;99.90
29237;DHT22;16266;50.866;4.398;2023-03-23T11:29:47;17.20;99.90
29237;DHT22;16266;50.866;4.398;2023-03-23T11:32:15;17.10;99.90
29237;DHT22;16266;50.866;4.398;2023-03-23T11:34:46;17.90;99.90
29237;DHT22;16266;50.866;4.398;2023-03-23T11:37:42;19.60;99.90
29237;DHT22;16266;50.866;4.398;2023-03-23T11:45:40;20.70;99.90
29237;DHT22;16266;50.866;4.398;2023-03-23T11:58:26;20.70;99.90
29237;DHT22;16266;50.866;4.398;2023-03-23T12:01:06;20.80;99.90
29237;DHT22;16266;50.866;4.398;2023-03-23T12:11:56;20.20;99.90
29237;DHT22;16266;50.866;4.398;2023-03-23T12:14:30;20.60;99.90
29237;DHT22;16266;50.866;4.398;2023-03-23T12:20:18;21.80;99.90
29237;DHT22;16266;50.866;4.398;2023-03-23T12:41:18;20.90;99.90
29237;DHT22;16266;50.866;4.398;2023-03-23T12:43:58;20.80;99.90
29237;DHT22;16266;50.866;4.398;2023-03-23T12:46:47;21.20;99.90
29237;DHT22;16266;50.866;4.398;2023-03-23T12:49:40;22.30;99.90
29237;DHT22;16266;50.866;4.398;2023-03-23T12:55:13;20.40;99.90
29237;DHT22;16266;50.866;4.398;2023-03-23T12:57:51;20.10;99.90
29237;DHT22;16266;50.866;4.398;2023-03-23T13:05:52;18.40;99.90
29237;DHT22;16266;50.866;4.398;2023-03-23T13:08:44;18.00;99.90
29237;DHT22;16266;50.866;4.398;2023-03-23T13:11:18;17.90;99.90
29237;DHT22;16266;50.866;4.398;2023-03-23T13:13:52;17.80;99.90
29237;DHT22;16266;50.866;4.398;2023-03-23T13:19:04;18.20;99.90
29237;DHT22;16266;50.866;4.398;2023-03-23T13:24:54;18.20;99.90
29237;DHT22;16266;50.866;4.398;2023-03-23T13:27:25;18.80;99.90
29237;DHT22;16266;50.866;4.398;2023-03-23T13:29:54;19.00;99.90
29237;DHT22;16266;50.866;4.398;2023-03-23T13:32:30;18.70;99.90
29237;DHT22;16266;50.866;4.398;2023-03-23T13:34:56;18.50;99.90
29237;DHT22;16266;50.866;4.398;2023-03-23T13:37:26;18.60;99.90
29237;DHT22;16266;50.866;4.398;2023-03-23T13:39:56;19.00;99.90
29237;DHT22;16266;50.866;4.398;2023-03-23T13:42:26;19.20;99.90
29237;DHT22;16266;50.866;4.398;2023-03-23T13:57:54;17.70;99.90
29237;DHT22;16266;50.866;4.398;2023-03-23T14:03:24;17.60;99.90
29237;DHT22;16266;50.866;4.398;2023-03-23T14:10:58;16.40;99.90
29237;DHT22;16266;50.866;4.398;2023-03-23T14:16:23;16.50;99.90
29237;DHT22;16266;50.866;4.398;2023-03-23T14:18:55;16.40;99.90
29237;DHT22;16266;50.866;4.398;2023-03-23T14:21:41;16.30;99.90
29237;DHT22;16266;50.866;4.398;2023-03-23T14:24:17;16.60;99.90
29237;DHT22;16266;50.866;4.398;2023-03-23T14:26:45;16.70;99.90
29237;DHT22;16266;50.866;4.398;2023-03-23T14:29:12;17.10;99.90
29237;DHT22;16266;50.866;4.398;2023-03-23T14:31:39;17.20;99.90
29237;DHT22;16266;50.866;4.398;2023-03-23T14:34:14;17.20;99.90
29237;DHT22;16266;50.866;4.398;2023-03-23T14:36:41;17.30;99.90
29237;DHT22;16266;50.866;4.398;2023-03-23T14:41:46;17.50;99.90
29237;DHT22;16266;50.866;4.398;2023-03-23T14:44:15;17.50;99.90
29237;DHT22;16266;50.866;4.398;2023-03-23T14:46:43;17.00;99.90
29237;DHT22;16266;50.866;4.398;2023-03-23T14:49:18;16.10;99.90
29237;DHT22;16266;50.866;4.398;2023-03-23T14:51:49;15.60;99.90
29237;DHT22;16266;50.866;4.398;2023-03-23T14:54:15;15.30;99.90
29237;DHT22;16266;50.866;4.398;2023-03-23T14:56:41;15.20;99.90
29237;DHT22;16266;50.866;4.398;2023-03-23T14:59:10;15.10;99.90
29237;DHT22;16266;50.866;4.398;2023-03-23T15:01:37;15.10;99.90
29237;DHT22;16266;50.866;4.398;2023-03-23T15:04:19;15.20;99.90
29237;DHT22;16266;50.866;4.398;2023-03-23T15:06:59;15.30;99.90
29237;DHT22;16266;50.866;4.398;2023-03-23T15:09:25;15.50;99.90
29237;DHT22;16266;50.866;4.398;2023-03-23T15:11:58;15.60;99.90
29237;DHT22;16266;50.866;4.398;2023-03-23T15:14:30;15.60;99.90
29237;DHT22;16266;50.866;4.398;2023-03-23T15:16:58;15.70;99.90
29237;DHT22;16266;50.866;4.398;2023-03-23T15:19:32;15.80;99.90
29237;DHT22;16266;50.866;4.398;2023-03-23T15:22:25;15.90;99.90
29237;DHT22;16266;50.866;4.398;2023-03-23T15:25:01;16.30;99.90
29237;DHT22;16266;50.866;4.398;2023-03-23T15:29:57;16.60;99.90
29237;DHT22;16266;50.866;4.398;2023-03-23T15:32:36;16.70;99.90
29237;DHT22;16266;50.866;4.398;2023-03-23T15:35:10;16.80;99.90
29237;DHT22;16266;50.866;4.398;2023-03-23T15:37:43;16.80;99.90
29237;DHT22;16266;50.866;4.398;2023-03-23T15:40:36;17.10;99.90
29237;DHT22;16266;50.866;4.398;2023-03-23T15:45:32;17.10;99.90
29237;DHT22;16266;50.866;4.398;2023-03-23T15:48:11;16.80;99.90
29237;DHT22;16266;50.866;4.398;2023-03-23T15:50:37;16.50;99.90
29237;DHT22;16266;50.866;4.398;2023-03-23T15:53:19;16.20;99.90
29237;DHT22;16266;50.866;4.398;2023-03-23T15:55:45;15.80;99.90
29237;DHT22;16266;50.866;4.398;2023-03-23T15:58:12;15.50;99.90
29237;DHT22;16266;50.866;4.398;2023-03-23T16:00:40;15.50;99.90
29237;DHT22;16266;50.866;4.398;2023-03-23T16:03:10;15.50;99.90
29237;DHT22;16266;50.866;4.398;2023-03-23T16:05:36;15.50;99.90
29237;DHT22;16266;50.866;4.398;2023-03-23T16:08:03;15.50;99.90
29237;DHT22;16266;50.866;4.398;2023-03-23T16:10:29;15.80;99.90
29237;DHT22;16266;50.866;4.398;2023-03-23T16:12:54;16.10;99.90
29237;DHT22;16266;50.866;4.398;2023-03-23T16:15:20;16.30;99.90
29237;DHT22;16266;50.866;4.398;2023-03-23T16:17:47;16.20;99.90
29237;DHT22;16266;50.866;4.398;2023-03-23T16:20:20;16.20;99.90
29237;DHT22;16266;50.866;4.398;2023-03-23T16:22:46;16.30;99.90
29237;DHT22;16266;50.866;4.398;2023-03-23T16:25:13;16.50;99.90
29237;DHT22;16266;50.866;4.398;2023-03-23T16:27:40;16.60;99.90
29237;DHT22;16266;50.866;4.398;2023-03-23T16:30:27;16.70;99.90
29237;DHT22;16266;50.866;4.398;2023-03-23T16:32:53;16.80;99.90
29237;DHT22;16266;50.866;4.398;2023-03-23T16:35:20;16.80;99.90
29237;DHT22;16266;50.866;4.398;2023-03-23T16:37:47;16.70;99.90
29237;DHT22;16266;50.866;4.398;2023-03-23T16:40:14;16.60;99.90
29237;DHT22;16266;50.866;4.398;2023-03-23T16:42:40;16.40;99.90
29237;DHT22;16266;50.866;4.398;2023-03-23T16:45:06;16.20;99.90
29237;DHT22;16266;50.866;4.398;2023-03-23T16:47:32;16.00;99.90
29237;DHT22;16266;50.866;4.398;2023-03-23T16:49:57;15.90;99.90
29237;DHT22;16266;50.866;4.398;2023-03-23T16:52:23;15.80;99.90
29237;DHT22;16266;50.866;4.398;2023-03-23T16:54:49;15.70;99.90
29237;DHT22;16266;50.866;4.398;2023-03-23T16:57:14;15.80;99.90
29237;DHT22;16266;50.866;4.398;2023-03-23T16:59:41;15.80;99.90
29237;DHT22;16266;50.866;4.398;2023-03-23T17:02:09;15.70;99.90
29237;DHT22;16266;50.866;4.398;2023-03-23T17:04:35;15.60;99.90
29237;DHT22;16266;50.866;4.398;2023-03-23T17:07:02;15.60;99.90
29237;DHT22;16266;50.866;4.398;2023-03-23T17:09:27;15.60;99.90
29237;DHT22;16266;50.866;4.398;2023-03-23T17:11:54;15.50;99.90
29237;DHT22;16266;50.866;4.398;2023-03-23T17:14:20;15.50;99.90
29237;DHT22;16266;50.866;4.398;2023-03-23T17:16:46;15.50;99.90
29237;DHT22;16266;50.866;4.398;2023-03-23T17:19:12;15.60;99.90
29237;DHT22;16266;50.866;4.398;2023-03-23T17:21:39;15.60;99.90
29237;DHT22;16266;50.866;4.398;2023-03-23T17:24:06;15.60;99.90
29237;DHT22;16266;50.866;4.398;2023-03-23T17:26:32;15.50;99.90
29237;DHT22;16266;50.866;4.398;2023-03-23T17:28:57;15.50;99.90
29237;DHT22;16266;50.866;4.398;2023-03-23T17:31:23;15.50;99.90
29237;DHT22;16266;50.866;4.398;2023-03-23T17:33:48;15.50;99.90
29237;DHT22;16266;50.866;4.398;2023-03-23T17:36:16;15.50;99.90
29237;DHT22;16266;50.866;4.398;2023-03-23T17:38:41;15.50;99.90
29237;DHT22;16266;50.866;4.398;2023-03-23T17:41:07;15.50;99.90
29237;DHT22;16266;50.866;4.398;2023-03-23T17:43:33;15.40;99.90
29237;DHT22;16266;50.866;4.398;2023-03-23T17:46:00;15.40;99.90
29237;DHT22;16266;50.866;4.398;2023-03-23T17:48:25;15.40;99.90
29237;DHT22;16266;50.866;4.398;2023-03-23T17:50:54;15.40;99.90
29237;DHT22;16266;50.866;4.398;2023-03-23T17:53:22;15.40;99.90
29237;DHT22;16266;50.866;4.398;2023-03-23T17:55:51;15.40;99.90